Time;durP1;ratioP1;P1;durP2;ratioP2;P2;SDS_P1;SDS_P2;PMS_P1;PMS_P2;Temp;Humidity;BMP_temperature;BMP_pressure;BME280_temperature;BME280_humidity;BME280_pressure;Samples;Min_cycle;Max_cycle;Signal;HPM_P1;HPM_P2
2023/06/03 00:00:05;;;;;;;1.77;1.30;;;;;;;;;;5038493;28;20040;-87
2023/06/03 00:02:30;;;;;;;2.40;1.33;;;;;;;;;;5038333;28;20064;-87
2023/06/03 00:04:56;;;;;;;2.17;1.50;;;;;;;;;;5021825;28;20059;-87
2023/06/03 00:07:21;;;;;;;1.95;1.60;;;;;;;;;;5038237;28;20036;-88
2023/06/03 00:09:47;;;;;;;1.42;1.15;;;;;;;;;;5039548;28;20086;-88
2023/06/03 00:12:12;;;;;;;1.40;1.30;;;;;;;;;;5022562;28;20503;-89
2023/06/03 00:14:37;;;;;;;1.52;1.17;;;;;;;;;;5037960;28;20029;-89
2023/06/03 00:17:04;;;;;;;1.88;1.27;;;;;;;;;;5056133;28;20340;-88
2023/06/03 00:19:30;;;;;;;2.00;1.52;;;;;;;;;;5056285;28;20033;-88
2023/06/03 00:21:55;;;;;;;1.77;1.40;;;;;;;;;;5037840;28;20029;-88
2023/06/03 00:24:22;;;;;;;1.83;1.55;;;;;;;;;;5037799;28;20028;-88
2023/06/03 00:26:49;;;;;;;2.88;1.23;;;;;;;;;;5040218;28;20529;-88
2023/06/03 00:29:14;;;;;;;1.83;1.48;;;;;;;;;;5022549;28;20060;-88
2023/06/03 00:31:40;;;;;;;2.28;1.50;;;;;;;;;;5039358;28;20064;-87
2023/06/03 00:34:05;;;;;;;1.92;1.50;;;;;;;;;;5020964;28;20380;-88
2023/06/03 00:36:31;;;;;;;2.08;1.48;;;;;;;;;;5037247;28;20029;-88
2023/06/03 00:38:56;;;;;;;4.18;1.48;;;;;;;;;;5037745;28;20029;-88
2023/06/03 00:41:21;;;;;;;4.10;1.30;;;;;;;;;;5037275;28;20510;-88
2023/06/03 00:43:47;;;;;;;2.00;1.58;;;;;;;;;;5004161;28;20495;-87
2023/06/03 00:46:13;;;;;;;1.88;1.45;;;;;;;;;;5036963;28;20408;-88
2023/06/03 00:48:39;;;;;;;3.40;1.45;;;;;;;;;;5037601;28;20053;-88
2023/06/03 00:51:06;;;;;;;2.92;1.83;;;;;;;;;;5020956;28;20083;-88
2023/06/03 00:53:31;;;;;;;2.35;1.52;;;;;;;;;;5037234;28;20029;-88
2023/06/03 00:55:57;;;;;;;3.67;1.60;;;;;;;;;;5054927;28;20403;-88
2023/06/03 00:58:22;;;;;;;2.85;1.33;;;;;;;;;;5054932;28;20025;-88
2023/06/03 01:00:48;;;;;;;1.60;1.50;;;;;;;;;;5020542;28;20158;-88
2023/06/03 01:03:14;;;;;;;1.88;1.67;;;;;;;;;;5004022;28;20028;-88
2023/06/03 01:05:45;;;;;;;3.55;1.50;;;;;;;;;;5054485;28;20063;-88
2023/06/03 01:08:25;;;;;;;2.92;1.70;;;;;;;;;;5054385;28;20484;-87
2023/06/03 01:11:13;;;;;;;2.42;1.48;;;;;;;;;;5054428;28;20494;-87
2023/06/03 01:13:46;;;;;;;2.97;1.63;;;;;;;;;;5036774;28;20499;-87
2023/06/03 01:16:12;;;;;;;1.75;1.42;;;;;;;;;;5054568;28;20029;-86
2023/06/03 01:18:38;;;;;;;2.92;2.03;;;;;;;;;;5003897;28;20128;-88
2023/06/03 01:21:03;;;;;;;1.40;1.30;;;;;;;;;;5054652;28;20059;-88
2023/06/03 01:23:33;;;;;;;2.08;1.50;;;;;;;;;;5038068;28;20025;-88
2023/06/03 01:26:00;;;;;;;2.20;1.50;;;;;;;;;;5054353;28;20055;-88
2023/06/03 01:28:27;;;;;;;1.45;1.35;;;;;;;;;;5036876;28;20032;-88
2023/06/03 01:30:54;;;;;;;3.42;1.30;;;;;;;;;;5019559;28;20029;-87
2023/06/03 01:33:21;;;;;;;2.05;1.70;;;;;;;;;;5036554;28;20075;-87
2023/06/03 01:35:52;;;;;;;2.78;1.65;;;;;;;;;;5036365;28;20032;-87
2023/06/03 01:38:18;;;;;;;2.25;1.58;;;;;;;;;;5036299;28;20029;-88
2023/06/03 01:40:44;;;;;;;3.10;2.15;;;;;;;;;;5036336;28;20118;-87
2023/06/03 01:43:09;;;;;;;1.75;1.50;;;;;;;;;;5036530;28;20029;-87
2023/06/03 01:45:35;;;;;;;1.77;1.60;;;;;;;;;;5053846;28;20075;-88
2023/06/03 01:48:01;;;;;;;2.03;1.65;;;;;;;;;;5019384;28;20037;-88
2023/06/03 01:50:26;;;;;;;2.10;1.52;;;;;;;;;;5037144;28;20360;-88
2023/06/03 01:52:52;;;;;;;1.70;1.60;;;;;;;;;;5053756;28;20033;-87
2023/06/03 01:55:17;;;;;;;1.77;1.60;;;;;;;;;;5054123;28;20072;-88
2023/06/03 01:57:43;;;;;;;2.38;1.42;;;;;;;;;;5036340;28;20021;-88
2023/06/03 02:00:11;;;;;;;2.90;1.60;;;;;;;;;;5003270;28;20083;-88
2023/06/03 02:02:36;;;;;;;1.60;1.50;;;;;;;;;;5036097;28;20047;-88
2023/06/03 02:05:03;;;;;;;1.52;1.42;;;;;;;;;;5035864;28;20507;-89
2023/06/03 02:07:30;;;;;;;2.25;1.50;;;;;;;;;;5035758;28;20021;-88
2023/06/03 02:09:56;;;;;;;2.45;1.60;;;;;;;;;;5035959;28;20071;-88
2023/06/03 02:12:23;;;;;;;2.65;1.50;;;;;;;;;;5036426;28;20036;-87
2023/06/03 02:14:53;;;;;;;1.95;1.60;;;;;;;;;;5036118;28;20391;-87
2023/06/03 02:17:20;;;;;;;2.38;1.65;;;;;;;;;;5053580;28;20069;-87
2023/06/03 02:19:45;;;;;;;2.15;1.40;;;;;;;;;;5053257;28;20047;-86
2023/06/03 02:22:12;;;;;;;4.97;1.40;;;;;;;;;;5019274;28;20476;-86
2023/06/03 02:24:38;;;;;;;4.22;1.60;;;;;;;;;;5035855;28;20025;-87
2023/06/03 02:27:04;;;;;;;2.00;1.50;;;;;;;;;;5053190;28;20110;-87
2023/06/03 02:29:31;;;;;;;1.50;1.40;;;;;;;;;;5036378;28;20483;-87
2023/06/03 02:31:58;;;;;;;2.15;1.50;;;;;;;;;;5036674;28;20037;-87
2023/06/03 02:34:24;;;;;;;1.40;1.30;;;;;;;;;;5018929;28;20422;-87
2023/06/03 02:36:50;;;;;;;3.38;1.60;;;;;;;;;;5053307;28;20064;-88
2023/06/03 02:39:16;;;;;;;1.70;1.50;;;;;;;;;;5035331;28;20120;-86
2023/06/03 02:41:43;;;;;;;1.55;1.40;;;;;;;;;;5035187;28;20028;-86
2023/06/03 02:44:08;;;;;;;2.22;1.40;;;;;;;;;;5035649;28;20032;-87
2023/06/03 02:46:34;;;;;;;1.77;1.33;;;;;;;;;;5018466;28;20057;-88
2023/06/03 02:49:02;;;;;;;1.50;1.40;;;;;;;;;;5053219;28;20029;-87
2023/06/03 02:51:28;;;;;;;2.03;1.25;;;;;;;;;;5035526;28;20106;-88
2023/06/03 02:53:53;;;;;;;2.00;1.80;;;;;;;;;;5035252;28;20056;-87
2023/06/03 02:56:19;;;;;;;1.40;1.30;;;;;;;;;;5035236;28;20365;-88
2023/06/03 02:58:45;;;;;;;1.58;1.40;;;;;;;;;;5053317;28;20033;-88
2023/06/03 03:01:11;;;;;;;2.80;1.63;;;;;;;;;;5053235;28;20025;-89
2023/06/03 03:03:36;;;;;;;3.92;1.40;;;;;;;;;;5035447;28;20031;-88
2023/06/03 03:06:03;;;;;;;1.92;1.40;;;;;;;;;;5035087;28;20104;-88
2023/06/03 03:08:35;;;;;;;1.52;1.42;;;;;;;;;;5037822;28;20035;-87
2023/06/03 03:11:00;;;;;;;1.48;1.35;;;;;;;;;;5039744;28;20127;-88
2023/06/03 03:13:26;;;;;;;1.50;1.27;;;;;;;;;;5023096;28;20057;-88
2023/06/03 03:15:51;;;;;;;1.58;1.48;;;;;;;;;;5022401;28;20071;-89
2023/06/03 03:18:17;;;;;;;1.45;1.20;;;;;;;;;;5039005;28;20100;-89
2023/06/03 03:20:42;;;;;;;1.75;1.30;;;;;;;;;;5022396;28;20439;-89
2023/06/03 03:23:08;;;;;;;1.88;1.45;;;;;;;;;;5006247;28;20442;-89
2023/06/03 03:25:34;;;;;;;1.40;1.30;;;;;;;;;;5039064;28;20025;-89
2023/06/03 03:28:00;;;;;;;1.38;1.10;;;;;;;;;;5038673;28;20063;-88
2023/06/03 03:30:25;;;;;;;1.63;1.35;;;;;;;;;;5038874;28;20065;-89
2023/06/03 03:32:51;;;;;;;1.40;1.30;;;;;;;;;;5038659;28;20056;-89
2023/06/03 03:35:19;;;;;;;1.60;1.30;;;;;;;;;;5022835;28;20041;-88
2023/06/03 03:37:44;;;;;;;1.40;1.30;;;;;;;;;;5038571;28;20025;-88
2023/06/03 03:40:22;;;;;;;2.30;1.60;;;;;;;;;;5022451;28;20357;-89
2023/06/03 03:42:52;;;;;;;1.40;1.30;;;;;;;;;;5038376;28;20030;-88
2023/06/03 03:45:23;;;;;;;1.55;1.45;;;;;;;;;;5038240;28;20395;-89
2023/06/03 03:47:50;;;;;;;1.40;1.30;;;;;;;;;;5038466;28;20115;-87
2023/06/03 03:50:38;;;;;;;2.22;1.50;;;;;;;;;;5056267;28;20029;-87
2023/06/03 03:53:05;;;;;;;1.27;1.17;;;;;;;;;;5021528;28;20013;-87
2023/06/03 03:55:32;;;;;;;2.47;1.23;;;;;;;;;;5038767;28;20032;-86
2023/06/03 03:58:02;;;;;;;1.20;1.00;;;;;;;;;;5021302;28;20032;-87
2023/06/03 04:00:28;;;;;;;1.20;1.10;;;;;;;;;;5038165;28;20033;-87
2023/06/03 04:02:53;;;;;;;2.03;1.38;;;;;;;;;;5021908;28;20387;-87
2023/06/03 04:05:22;;;;;;;1.15;1.00;;;;;;;;;;5038852;28;20037;-88
2023/06/03 04:07:48;;;;;;;1.95;1.25;;;;;;;;;;5038502;28;20100;-86
2023/06/03 04:10:15;;;;;;;1.77;1.33;;;;;;;;;;5022155;28;20448;-89
2023/06/03 04:12:40;;;;;;;1.77;1.20;;;;;;;;;;5023209;28;20199;-86
2023/06/03 04:15:06;;;;;;;2.28;1.30;;;;;;;;;;5039303;28;20108;-87
2023/06/03 04:17:35;;;;;;;1.60;1.30;;;;;;;;;;5037855;28;20044;-90
2023/06/03 04:20:01;;;;;;;1.42;1.30;;;;;;;;;;5037751;28;20447;-87
2023/06/03 04:22:26;;;;;;;2.60;1.58;;;;;;;;;;5056261;28;20112;-89
2023/06/03 04:24:57;;;;;;;1.20;1.10;;;;;;;;;;5021669;28;20025;-88
2023/06/03 04:27:22;;;;;;;1.35;1.13;;;;;;;;;;5057160;28;20500;-87
2023/06/03 04:29:48;;;;;;;1.20;1.10;;;;;;;;;;5038943;28;20048;-87
2023/06/03 04:32:13;;;;;;;1.23;1.10;;;;;;;;;;5022359;28;20024;-88
2023/06/03 04:34:53;;;;;;;1.67;1.23;;;;;;;;;;5039500;28;20036;-89
2023/06/03 04:37:19;;;;;;;1.73;1.20;;;;;;;;;;5038151;28;20025;-87
2023/06/03 04:39:45;;;;;;;1.25;1.15;;;;;;;;;;5021320;28;20459;-89
2023/06/03 04:42:12;;;;;;;1.65;1.10;;;;;;;;;;5037928;28;20107;-89
2023/06/03 04:44:38;;;;;;;2.13;1.08;;;;;;;;;;5038366;28;20415;-86
2023/06/03 04:47:05;;;;;;;1.95;1.10;;;;;;;;;;5038249;28;20051;-86
2023/06/03 04:49:32;;;;;;;1.20;1.10;;;;;;;;;;5037927;28;20116;-86
2023/06/03 04:51:58;;;;;;;1.15;1.00;;;;;;;;;;5005191;28;20032;-84
2023/06/03 04:54:23;;;;;;;3.97;1.30;;;;;;;;;;5038392;28;20434;-85
2023/06/03 04:56:52;;;;;;;1.92;1.23;;;;;;;;;;5021779;28;20033;-86
2023/06/03 04:59:17;;;;;;;3.47;1.80;;;;;;;;;;5055670;28;20017;-84
2023/06/03 05:01:44;;;;;;;3.40;2.15;;;;;;;;;;5055380;28;20387;-81
2023/06/03 05:04:13;;;;;;;3.83;1.83;;;;;;;;;;5038320;28;20033;-86
2023/06/03 05:06:39;;;;;;;5.53;2.10;;;;;;;;;;5023416;28;20032;-85
2023/06/03 05:09:05;;;;;;;6.93;1.85;;;;;;;;;;5057422;28;20037;-86
2023/06/03 05:11:30;;;;;;;3.95;1.98;;;;;;;;;;5037897;28;20472;-86
2023/06/03 05:13:56;;;;;;;6.22;2.30;;;;;;;;;;5022348;28;20029;-86
2023/06/03 05:16:21;;;;;;;4.88;2.00;;;;;;;;;;5024219;28;20086;-86
2023/06/03 05:18:46;;;;;;;4.05;1.92;;;;;;;;;;5057308;28;20385;-85
2023/06/03 05:21:12;;;;;;;4.25;2.03;;;;;;;;;;5021291;28;20032;-86
2023/06/03 05:23:37;;;;;;;5.15;1.98;;;;;;;;;;5020493;28;20071;-85
2023/06/03 05:26:03;;;;;;;5.40;2.08;;;;;;;;;;5055617;28;20083;-84
2023/06/03 05:28:28;;;;;;;4.07;2.17;;;;;;;;;;5037089;28;20100;-85
2023/06/03 05:30:54;;;;;;;4.18;1.70;;;;;;;;;;5019539;28;20496;-84
2023/06/03 05:33:29;;;;;;;4.78;1.95;;;;;;;;;;5036812;28;20076;-84
2023/06/03 05:35:55;;;;;;;3.22;1.85;;;;;;;;;;5036816;28;20036;-86
2023/06/03 05:38:21;;;;;;;4.78;2.15;;;;;;;;;;5020732;28;20067;-85
2023/06/03 05:40:48;;;;;;;4.20;2.03;;;;;;;;;;5003636;28;20040;-84
2023/06/03 05:43:13;;;;;;;3.97;2.05;;;;;;;;;;5036649;28;20079;-84
2023/06/03 05:45:38;;;;;;;4.50;1.75;;;;;;;;;;5019772;28;20053;-86
2023/06/03 05:48:04;;;;;;;4.47;2.00;;;;;;;;;;5036478;28;20025;-87
2023/06/03 05:50:29;;;;;;;4.60;1.98;;;;;;;;;;5036733;28;20048;-86
2023/06/03 05:52:55;;;;;;;2.80;1.50;;;;;;;;;;5019805;28;20041;-87
2023/06/03 05:55:22;;;;;;;4.40;1.95;;;;;;;;;;5036674;28;20391;-86
2023/06/03 05:57:47;;;;;;;5.35;1.60;;;;;;;;;;5020313;28;20025;-86
2023/06/03 06:00:13;;;;;;;4.20;1.90;;;;;;;;;;5054557;28;20032;-86
2023/06/03 06:02:39;;;;;;;2.97;1.63;;;;;;;;;;5054221;28;20492;-86
2023/06/03 06:05:05;;;;;;;8.30;1.75;;;;;;;;;;5036602;28;20047;-86
2023/06/03 06:07:31;;;;;;;4.15;1.70;;;;;;;;;;5054336;28;20104;-86
2023/06/03 06:09:56;;;;;;;3.08;1.90;;;;;;;;;;5020207;28;20120;-87
2023/06/03 06:12:23;;;;;;;4.90;1.60;;;;;;;;;;5055721;28;20082;-87
2023/06/03 06:14:48;;;;;;;6.50;1.77;;;;;;;;;;5023773;28;20028;-87
2023/06/03 06:17:16;;;;;;;4.35;1.40;;;;;;;;;;5004504;28;20036;-87
2023/06/03 06:19:42;;;;;;;4.10;1.70;;;;;;;;;;5057217;28;20021;-86
2023/06/03 06:22:07;;;;;;;3.42;1.65;;;;;;;;;;5045332;28;20036;-85
2023/06/03 06:24:32;;;;;;;8.57;1.60;;;;;;;;;;5056200;28;20033;-86
2023/06/03 06:26:58;;;;;;;5.45;1.80;;;;;;;;;;5056190;28;20040;-86
2023/06/03 06:29:24;;;;;;;9.30;2.53;;;;;;;;;;5056434;28;20492;-86
2023/06/03 06:31:51;;;;;;;10.07;1.98;;;;;;;;;;5022972;28;20447;-85
2023/06/03 06:34:17;;;;;;;8.23;2.55;;;;;;;;;;5056252;28;20120;-88
2023/06/03 06:36:49;;;;;;;10.82;2.45;;;;;;;;;;5005049;28;20052;-85
2023/06/03 06:39:26;;;;;;;8.68;2.75;;;;;;;;;;5019604;28;20069;-83
2023/06/03 06:41:52;;;;;;;15.20;2.90;;;;;;;;;;5036371;28;20026;-85
2023/06/03 06:44:17;;;;;;;11.63;2.38;;;;;;;;;;5018952;28;20025;-85
2023/06/03 06:46:42;;;;;;;11.57;2.97;;;;;;;;;;5035379;28;20084;-85
2023/06/03 06:49:09;;;;;;;15.05;3.53;;;;;;;;;;5002262;28;20030;-84
2023/06/03 06:51:36;;;;;;;11.20;3.05;;;;;;;;;;5015998;28;20041;-86
2023/06/03 06:54:01;;;;;;;8.73;2.60;;;;;;;;;;5001438;28;20022;-86
2023/06/03 06:56:27;;;;;;;12.77;3.13;;;;;;;;;;5000189;28;20029;-86
2023/06/03 06:58:53;;;;;;;26.25;5.43;;;;;;;;;;5016258;28;20083;-85
2023/06/03 07:01:18;;;;;;;29.83;6.63;;;;;;;;;;5000745;28;20030;-87
2023/06/03 07:03:44;;;;;;;28.15;6.10;;;;;;;;;;5001354;28;20044;-86
2023/06/03 07:06:10;;;;;;;28.92;6.07;;;;;;;;;;5035765;28;20368;-87
2023/06/03 07:08:35;;;;;;;30.27;5.30;;;;;;;;;;5033790;28;20028;-84
2023/06/03 07:11:03;;;;;;;30.20;6.28;;;;;;;;;;5016065;28;20116;-85
2023/06/03 07:13:29;;;;;;;27.55;7.00;;;;;;;;;;5016394;28;20391;-87
2023/06/03 07:15:55;;;;;;;31.02;5.85;;;;;;;;;;5033857;28;20034;-85
2023/06/03 07:18:21;;;;;;;39.47;6.28;;;;;;;;;;5034903;28;20064;-85
2023/06/03 07:20:47;;;;;;;37.17;7.13;;;;;;;;;;5033273;28;20388;-84
2023/06/03 07:23:22;;;;;;;25.58;5.15;;;;;;;;;;4989467;28;20029;-87
2023/06/03 07:25:49;;;;;;;23.85;4.97;;;;;;;;;;5019764;28;20033;-87
2023/06/03 07:28:17;;;;;;;42.95;7.85;;;;;;;;;;5021633;28;20090;-82
2023/06/03 07:30:45;;;;;;;39.55;7.03;;;;;;;;;;5019474;28;20021;-90
2023/06/03 07:33:33;;;;;;;37.55;6.35;;;;;;;;;;5018772;28;20504;-88
2023/06/03 07:36:01;;;;;;;35.03;6.75;;;;;;;;;;5035829;28;20112;-87
2023/06/03 07:38:39;;;;;;;50.47;8.50;;;;;;;;;;5026673;28;20476;-87
2023/06/03 07:41:05;;;;;;;71.13;8.25;;;;;;;;;;5033119;28;20037;-87
2023/06/03 07:43:35;;;;;;;54.45;6.97;;;;;;;;;;4999068;28;20030;-87
2023/06/03 07:46:05;;;;;;;36.20;6.70;;;;;;;;;;5016092;28;20060;-87
2023/06/03 07:48:30;;;;;;;38.58;6.93;;;;;;;;;;5015225;28;20486;-87
2023/06/03 07:50:56;;;;;;;29.17;5.55;;;;;;;;;;4999098;28;20172;-87
2023/06/03 07:53:25;;;;;;;30.88;5.50;;;;;;;;;;5033554;28;20034;-88
2023/06/03 07:55:51;;;;;;;32.13;6.28;;;;;;;;;;5020167;28;20392;-88
2023/06/03 07:58:17;;;;;;;27.10;5.82;;;;;;;;;;5019304;28;20029;-88
2023/06/03 08:00:45;;;;;;;28.15;5.95;;;;;;;;;;5002453;28;20032;-87
2023/06/03 08:03:15;;;;;;;24.75;4.45;;;;;;;;;;5018168;28;20036;-86
2023/06/03 08:05:42;;;;;;;25.55;5.32;;;;;;;;;;5036410;28;20079;-85
2023/06/03 08:08:12;;;;;;;22.42;4.80;;;;;;;;;;5019111;28;20424;-89
2023/06/03 08:10:38;;;;;;;19.20;4.70;;;;;;;;;;5002767;28;20033;-89
2023/06/03 08:13:03;;;;;;;21.52;3.80;;;;;;;;;;5036370;28;20033;-90
2023/06/03 08:15:32;;;;;;;23.20;4.18;;;;;;;;;;5003540;28;20048;-88
2023/06/03 08:17:59;;;;;;;13.00;3.90;;;;;;;;;;5019776;28;20053;-85
2023/06/03 08:20:28;;;;;;;15.60;3.55;;;;;;;;;;5002748;28;20066;-87
2023/06/03 08:22:54;;;;;;;99.10;17.83;;;;;;;;;;5019147;28;20053;-85
2023/06/03 08:25:19;;;;;;;40.47;8.90;;;;;;;;;;5018820;28;20017;-86
2023/06/03 08:27:45;;;;;;;30.75;6.40;;;;;;;;;;5018222;28;20029;-85
2023/06/03 08:30:14;;;;;;;33.78;5.85;;;;;;;;;;5047522;28;20072;-85
2023/06/03 08:32:40;;;;;;;18.60;3.90;;;;;;;;;;5038314;28;20028;-83
2023/06/03 08:35:11;;;;;;;15.82;2.95;;;;;;;;;;5037975;28;20107;-83
2023/06/03 08:37:36;;;;;;;24.42;5.90;;;;;;;;;;5037842;28;20029;-84
2023/06/03 08:40:07;;;;;;;20.88;5.47;;;;;;;;;;5021792;28;20028;-82
2023/06/03 08:42:38;;;;;;;20.45;4.80;;;;;;;;;;5055694;28;20449;-84
2023/06/03 08:45:07;;;;;;;24.20;5.57;;;;;;;;;;5055645;28;20021;-85
2023/06/03 08:48:00;;;;;;;55.17;8.27;;;;;;;;;;5038246;28;20087;-89
2023/06/03 08:50:27;;;;;;;38.90;5.90;;;;;;;;;;5021922;28;20044;-86
2023/06/03 08:52:53;;;;;;;27.88;5.35;;;;;;;;;;5020526;28;20021;-88
2023/06/03 08:55:21;;;;;;;21.52;4.68;;;;;;;;;;5022866;28;20041;-84
2023/06/03 08:58:02;;;;;;;25.20;5.15;;;;;;;;;;5039952;28;20396;-85
2023/06/03 09:00:30;;;;;;;23.95;4.75;;;;;;;;;;5018139;28;20024;-87
2023/06/03 09:02:55;;;;;;;27.98;5.10;;;;;;;;;;5017742;28;20025;-85
2023/06/03 09:05:21;;;;;;;27.15;4.50;;;;;;;;;;5017897;28;20036;-87
2023/06/03 09:07:47;;;;;;;30.38;4.18;;;;;;;;;;5015787;28;20025;-84
2023/06/03 09:10:20;;;;;;;17.40;3.88;;;;;;;;;;4984448;28;20048;-83
2023/06/03 09:12:46;;;;;;;21.30;4.18;;;;;;;;;;4994530;28;20110;-85
2023/06/03 09:15:16;;;;;;;18.63;3.88;;;;;;;;;;4981469;28;20026;-85
2023/06/03 09:17:42;;;;;;;20.63;4.05;;;;;;;;;;5003240;28;20108;-84
2023/06/03 09:20:09;;;;;;;16.02;3.60;;;;;;;;;;5035112;28;20029;-85
2023/06/03 09:22:35;;;;;;;15.23;3.75;;;;;;;;;;5014858;28;20109;-84
2023/06/03 09:25:02;;;;;;;14.25;3.40;;;;;;;;;;5000538;28;20107;-84
2023/06/03 09:27:27;;;;;;;12.15;3.17;;;;;;;;;;5016814;28;20021;-82
2023/06/03 09:29:55;;;;;;;11.48;2.70;;;;;;;;;;5000555;28;20099;-82
2023/06/03 09:32:21;;;;;;;11.45;2.65;;;;;;;;;;5000241;28;20399;-84
2023/06/03 09:34:46;;;;;;;17.25;3.25;;;;;;;;;;5016690;28;20048;-84
2023/06/03 09:37:12;;;;;;;11.20;3.00;;;;;;;;;;5000347;28;20044;-83
2023/06/03 09:39:38;;;;;;;11.82;2.90;;;;;;;;;;5016203;28;20033;-83
2023/06/03 09:42:04;;;;;;;13.77;2.92;;;;;;;;;;5001237;28;20037;-83
2023/06/03 09:44:41;;;;;;;11.93;3.00;;;;;;;;;;5016128;28;20025;-83
2023/06/03 09:47:07;;;;;;;14.93;2.60;;;;;;;;;;5016267;28;20069;-84
2023/06/03 09:49:32;;;;;;;10.95;2.60;;;;;;;;;;5016511;28;20492;-83
2023/06/03 09:51:58;;;;;;;10.55;2.80;;;;;;;;;;5016226;28;20057;-84
2023/06/03 09:54:24;;;;;;;10.60;2.60;;;;;;;;;;5021555;28;20029;-83
2023/06/03 09:56:51;;;;;;;11.13;2.55;;;;;;;;;;5054570;28;20037;-82
2023/06/03 09:59:21;;;;;;;10.85;2.65;;;;;;;;;;5036619;28;20082;-83
2023/06/03 10:01:48;;;;;;;9.07;2.28;;;;;;;;;;5020028;28;20175;-84
2023/06/03 10:04:20;;;;;;;6.68;2.10;;;;;;;;;;5036767;28;20021;-84
2023/06/03 10:07:04;;;;;;;10.85;2.20;;;;;;;;;;5054704;28;20037;-84
2023/06/03 10:09:31;;;;;;;17.85;3.40;;;;;;;;;;5037353;28;20522;-84
2023/06/03 10:11:59;;;;;;;21.30;3.70;;;;;;;;;;5041663;28;20373;-84
2023/06/03 10:14:26;;;;;;;32.67;4.72;;;;;;;;;;5022043;28;20034;-85
2023/06/03 10:17:01;;;;;;;24.13;5.25;;;;;;;;;;5030178;28;20029;-85
2023/06/03 10:19:27;;;;;;;24.67;5.18;;;;;;;;;;5034191;28;20032;-84
2023/06/03 10:21:54;;;;;;;16.80;3.92;;;;;;;;;;5038611;28;20033;-82
2023/06/03 10:24:21;;;;;;;27.50;4.28;;;;;;;;;;5032610;28;20036;-82
2023/06/03 10:26:47;;;;;;;28.40;3.67;;;;;;;;;;5012394;28;20496;-86
2023/06/03 10:29:14;;;;;;;18.38;3.38;;;;;;;;;;5036839;28;20029;-86
2023/06/03 10:31:40;;;;;;;20.73;2.97;;;;;;;;;;5035873;28;20024;-85
2023/06/03 10:34:06;;;;;;;19.98;3.33;;;;;;;;;;5019941;28;20334;-87
2023/06/03 10:36:32;;;;;;;20.42;3.15;;;;;;;;;;5036034;28;20033;-86
2023/06/03 10:39:02;;;;;;;23.90;4.13;;;;;;;;;;5003260;28;20123;-83
2023/06/03 10:41:30;;;;;;;27.77;3.33;;;;;;;;;;5019265;28;20040;-83
2023/06/03 10:43:55;;;;;;;21.80;3.10;;;;;;;;;;5019281;28;20033;-87
2023/06/03 10:46:21;;;;;;;16.70;2.80;;;;;;;;;;4982772;28;20108;-84
2023/06/03 10:48:46;;;;;;;18.70;2.80;;;;;;;;;;5006815;28;20026;-81
2023/06/03 10:51:55;;;;;;;19.80;3.25;;;;;;;;;;5036619;28;20036;-84
2023/06/03 10:55:02;;;;;;;6.13;1.55;;;;;;;;;;5026717;28;20520;-84
2023/06/03 10:57:35;;;;;;;7.03;1.95;;;;;;;;;;4973535;28;20081;-87
2023/06/03 11:00:00;;;;;;;5.35;1.58;;;;;;;;;;5011821;28;20388;-85
2023/06/03 11:02:26;;;;;;;4.03;1.40;;;;;;;;;;5020348;28;20037;-86
2023/06/03 11:05:21;;;;;;;7.60;1.92;;;;;;;;;;5017839;28;20033;-86
2023/06/03 11:07:47;;;;;;;16.58;3.42;;;;;;;;;;5018013;28;20436;-86
2023/06/03 11:10:45;;;;;;;15.73;3.88;;;;;;;;;;5016992;28;20034;-83
2023/06/03 11:13:44;;;;;;;11.77;2.90;;;;;;;;;;4963599;28;20041;-85
2023/06/03 11:16:10;;;;;;;9.73;3.13;;;;;;;;;;5001197;28;20025;-81
2023/06/03 11:18:35;;;;;;;13.32;2.40;;;;;;;;;;5016992;28;20036;-82
2023/06/03 11:21:02;;;;;;;13.70;2.70;;;;;;;;;;5017004;28;20033;-81
2023/06/03 11:23:44;;;;;;;11.25;2.53;;;;;;;;;;5017645;28;20027;-82
2023/06/03 11:26:30;;;;;;;17.27;2.03;;;;;;;;;;5000376;28;20038;-83
2023/06/03 11:28:55;;;;;;;11.45;2.42;;;;;;;;;;5022348;28;20022;-87
2023/06/03 11:31:21;;;;;;;7.05;1.92;;;;;;;;;;5047207;28;20030;-84
2023/06/03 11:34:17;;;;;;;5.20;1.65;;;;;;;;;;5053361;28;20053;-84
2023/06/03 11:36:51;;;;;;;6.95;1.70;;;;;;;;;;5046610;28;20100;-83
2023/06/03 11:39:17;;;;;;;8.45;1.77;;;;;;;;;;5025824;28;20057;-85
2023/06/03 11:42:08;;;;;;;10.95;2.03;;;;;;;;;;5007032;28;20033;-85
2023/06/03 11:44:35;;;;;;;13.23;2.38;;;;;;;;;;5010430;28;20396;-85
2023/06/03 11:47:01;;;;;;;10.70;1.60;;;;;;;;;;5015349;28;20057;-83
2023/06/03 11:49:27;;;;;;;11.30;2.00;;;;;;;;;;5031308;28;20042;-86
2023/06/03 11:51:57;;;;;;;13.20;2.10;;;;;;;;;;5027086;28;20041;-85
2023/06/03 11:54:23;;;;;;;8.77;2.30;;;;;;;;;;4997499;28;20026;-85
2023/06/03 11:56:51;;;;;;;13.35;2.33;;;;;;;;;;5013504;28;20081;-85
2023/06/03 11:59:20;;;;;;;23.05;2.75;;;;;;;;;;4965415;28;20501;-84
2023/06/03 12:01:59;;;;;;;11.35;1.70;;;;;;;;;;4981331;28;20042;-86
2023/06/03 12:04:25;;;;;;;11.80;2.05;;;;;;;;;;4981066;28;20096;-85
2023/06/03 12:06:52;;;;;;;11.95;1.58;;;;;;;;;;4981639;28;20069;-86
2023/06/03 12:09:19;;;;;;;17.13;2.17;;;;;;;;;;4998100;28;20030;-83
2023/06/03 12:11:44;;;;;;;37.15;4.35;;;;;;;;;;4980037;28;20544;-86
2023/06/03 12:14:21;;;;;;;32.22;4.28;;;;;;;;;;4979959;28;20038;-84
2023/06/03 12:16:47;;;;;;;18.30;3.25;;;;;;;;;;4963995;28;20057;-81
2023/06/03 12:19:12;;;;;;;21.17;3.13;;;;;;;;;;4998286;28;20026;-83
2023/06/03 12:21:39;;;;;;;20.52;2.72;;;;;;;;;;4980053;28;20485;-85
2023/06/03 12:24:09;;;;;;;25.38;3.38;;;;;;;;;;4963848;28;20030;-85
2023/06/03 12:26:37;;;;;;;16.75;2.78;;;;;;;;;;4979959;28;20097;-86
2023/06/03 12:29:10;;;;;;;14.63;2.85;;;;;;;;;;4964238;28;20362;-85
2023/06/03 12:31:36;;;;;;;21.35;3.15;;;;;;;;;;4963746;28;20034;-85
2023/06/03 12:34:02;;;;;;;13.30;2.17;;;;;;;;;;4979431;28;20385;-84
2023/06/03 12:36:49;;;;;;;19.77;2.50;;;;;;;;;;4979125;28;20065;-84
2023/06/03 12:39:17;;;;;;;8.85;2.30;;;;;;;;;;4980341;28;20029;-84
2023/06/03 12:41:52;;;;;;;10.63;1.98;;;;;;;;;;4999860;28;20033;-86
2023/06/03 12:44:17;;;;;;;19.10;1.92;;;;;;;;;;5009698;28;20042;-87
2023/06/03 12:46:43;;;;;;;9.32;1.90;;;;;;;;;;5027713;28;20053;-84
2023/06/03 12:49:15;;;;;;;42.53;5.43;;;;;;;;;;5029322;28;20032;-85
2023/06/03 12:51:42;;;;;;;65.45;8.95;;;;;;;;;;5049423;28;20035;-86
2023/06/03 12:54:07;;;;;;;85.60;9.75;;;;;;;;;;5045915;28;20025;-86
2023/06/03 12:56:35;;;;;;;97.55;13.38;;;;;;;;;;5041174;28;20147;-84
2023/06/03 12:59:01;;;;;;;92.53;10.55;;;;;;;;;;5023072;28;20559;-87
2023/06/03 13:01:27;;;;;;;102.35;12.80;;;;;;;;;;5024709;28;20053;-89
2023/06/03 13:03:54;;;;;;;117.68;11.48;;;;;;;;;;5029573;28;20037;-88
2023/06/03 13:06:22;;;;;;;95.68;11.52;;;;;;;;;;5033263;28;20021;-88
2023/06/03 13:08:50;;;;;;;67.85;8.38;;;;;;;;;;5001088;28;20036;-89
2023/06/03 13:11:16;;;;;;;56.15;8.57;;;;;;;;;;4998935;28;20064;-88
2023/06/03 13:13:42;;;;;;;55.42;8.93;;;;;;;;;;5007808;28;20033;-88
2023/06/03 13:16:07;;;;;;;53.33;7.60;;;;;;;;;;5019834;28;20541;-84
2023/06/03 13:18:33;;;;;;;46.78;6.72;;;;;;;;;;5004704;28;20113;-87
2023/06/03 13:20:58;;;;;;;51.85;7.38;;;;;;;;;;5002447;28;20064;-85
2023/06/03 13:23:24;;;;;;;56.08;6.43;;;;;;;;;;5002720;28;20090;-84
2023/06/03 13:25:49;;;;;;;45.35;6.13;;;;;;;;;;5001908;28;20034;-84
2023/06/03 13:28:15;;;;;;;35.90;4.63;;;;;;;;;;5001919;28;20033;-85
2023/06/03 13:30:41;;;;;;;33.05;5.53;;;;;;;;;;5002343;28;20025;-84
2023/06/03 13:33:06;;;;;;;32.30;4.47;;;;;;;;;;5021386;28;20052;-84
2023/06/03 13:35:32;;;;;;;30.33;4.30;;;;;;;;;;5020206;28;20025;-82
2023/06/03 13:37:57;;;;;;;24.77;5.15;;;;;;;;;;5020539;28;20033;-83
2023/06/03 13:40:22;;;;;;;33.17;4.63;;;;;;;;;;5018354;28;20033;-85
2023/06/03 13:42:48;;;;;;;21.00;3.35;;;;;;;;;;5001969;28;20053;-85
2023/06/03 13:45:13;;;;;;;20.05;3.35;;;;;;;;;;5018396;28;20028;-85
2023/06/03 13:47:39;;;;;;;23.70;3.33;;;;;;;;;;5017397;28;20520;-85
2023/06/03 13:50:05;;;;;;;15.57;3.28;;;;;;;;;;5000988;28;20087;-84
2023/06/03 13:52:31;;;;;;;17.42;2.78;;;;;;;;;;5034864;28;20033;-84
2023/06/03 13:54:57;;;;;;;11.95;2.45;;;;;;;;;;5018055;28;20041;-84
2023/06/03 13:57:22;;;;;;;13.30;2.47;;;;;;;;;;5001899;28;20152;-84
2023/06/03 13:59:48;;;;;;;10.23;2.38;;;;;;;;;;5034592;28;20389;-84
2023/06/03 14:02:13;;;;;;;7.38;1.92;;;;;;;;;;5036376;28;20080;-84
2023/06/03 14:04:39;;;;;;;12.18;2.58;;;;;;;;;;5036352;28;20025;-84
2023/06/03 14:07:05;;;;;;;11.27;2.95;;;;;;;;;;5017343;28;20115;-84
2023/06/03 14:09:33;;;;;;;10.63;1.92;;;;;;;;;;5036530;28;20069;-85
2023/06/03 14:11:59;;;;;;;6.68;1.80;;;;;;;;;;5018984;28;20022;-85
2023/06/03 14:14:25;;;;;;;8.85;2.10;;;;;;;;;;5037045;28;20561;-85
2023/06/03 14:16:50;;;;;;;6.05;1.50;;;;;;;;;;5035711;28;20488;-85
2023/06/03 14:19:16;;;;;;;7.60;1.60;;;;;;;;;;5001262;28;20479;-85
2023/06/03 14:21:41;;;;;;;7.53;1.85;;;;;;;;;;5016425;28;20409;-85
2023/06/03 14:24:07;;;;;;;3.38;1.23;;;;;;;;;;4983967;28;20028;-86
2023/06/03 14:26:35;;;;;;;10.27;1.58;;;;;;;;;;4999850;28;20553;-86
2023/06/03 14:29:10;;;;;;;6.22;1.85;;;;;;;;;;5016835;28;20036;-85
2023/06/03 14:31:36;;;;;;;6.00;1.85;;;;;;;;;;5016505;28;20034;-85
2023/06/03 14:34:04;;;;;;;6.68;1.40;;;;;;;;;;4999232;28;20427;-85
2023/06/03 14:36:29;;;;;;;4.22;1.40;;;;;;;;;;4999978;28;20491;-85
2023/06/03 14:38:55;;;;;;;5.38;1.40;;;;;;;;;;4999457;28;20124;-86